createdAt,value
2022-12-26T00:01:12.867Z,20.27
2022-12-26T00:03:39.575Z,21.17
2022-12-26T00:06:15.744Z,22.05
2022-12-26T00:08:43.083Z,20.13
2022-12-26T00:11:10.937Z,20.58
2022-12-26T00:13:41.436Z,18.35
2022-12-26T00:16:17.917Z,24.70
2022-12-26T00:18:45.520Z,19.92
2022-12-26T00:21:14.398Z,21.85
2022-12-26T00:23:41.149Z,21.60
2022-12-26T00:26:16.103Z,22.27
2022-12-26T00:28:43.053Z,21.90
2022-12-26T00:31:13.055Z,23.25
2022-12-26T00:33:39.868Z,23.92
2022-12-26T00:36:15.706Z,25.10
2022-12-26T00:38:43.655Z,28.17
2022-12-26T00:41:11.591Z,30.02
2022-12-26T00:43:38.252Z,28.15
2022-12-26T00:46:05.147Z,27.20
2022-12-26T00:48:32.134Z,26.35
2022-12-26T00:50:58.981Z,30.85
2022-12-26T00:53:26.351Z,30.70
2022-12-26T00:55:53.447Z,27.23
2022-12-26T00:58:20.969Z,29.05
2022-12-26T01:00:47.935Z,24.38
2022-12-26T01:03:16.042Z,21.80
2022-12-26T01:05:47.550Z,18.40
2022-12-26T01:08:22.168Z,21.67
2022-12-26T01:10:50.783Z,23.48
2022-12-26T01:13:17.123Z,21.27
2022-12-26T01:15:51.818Z,24.30
2022-12-26T01:18:18.818Z,25.40
2022-12-26T01:20:45.384Z,27.45
2022-12-26T01:23:11.738Z,34.80
2022-12-26T01:26:17.795Z,30.85
2022-12-26T01:28:26.275Z,30.02
2022-12-26T01:30:52.837Z,28.73
2022-12-26T01:33:19.194Z,27.17
2022-12-26T01:35:52.836Z,27.17
2022-12-26T01:38:19.905Z,27.23
2022-12-26T01:40:46.944Z,27.38
2022-12-26T01:43:14.869Z,26.63
2022-12-26T01:45:49.295Z,26.30
2022-12-26T01:48:22.542Z,24.90
2022-12-26T01:51:06.155Z,24.38
2022-12-26T01:53:47.488Z,24.73
2022-12-26T01:56:20.029Z,27.25
2022-12-26T01:58:52.313Z,32.60
2022-12-26T02:01:20.821Z,29.58
2022-12-26T02:03:47.980Z,28.52
2022-12-26T02:06:15.649Z,29.10
2022-12-26T02:08:44.279Z,33.70
2022-12-26T02:11:20.382Z,33.92
2022-12-26T02:13:46.925Z,31.48
2022-12-26T02:16:16.637Z,31.85
2022-12-26T02:18:43.176Z,31.17
2022-12-26T02:21:37.220Z,34.05
2022-12-26T02:24:45.360Z,30.55
2022-12-26T02:27:22.618Z,31.13
2022-12-26T02:29:54.650Z,32.75
2022-12-26T02:32:37.194Z,35.58
2022-12-26T02:37:45.033Z,28.85
2022-12-26T02:40:46.703Z,30.40
2022-12-26T02:43:38.419Z,31.70
2022-12-26T02:46:17.252Z,29.35
2022-12-26T02:48:49.636Z,35.83
2022-12-26T02:51:48.947Z,34.20
2022-12-26T02:54:26.787Z,32.17
2022-12-26T02:57:00.206Z,36.97
2022-12-26T02:59:57.141Z,34.08
2022-12-26T03:03:02.855Z,36.58
2022-12-26T03:05:35.154Z,32.15
2022-12-26T03:08:03.546Z,30.65
2022-12-26T03:10:34.951Z,29.85
2022-12-26T03:13:06.749Z,31.83
2022-12-26T03:15:37.772Z,27.13
2022-12-26T03:18:06.777Z,32.88
2022-12-26T03:20:36.122Z,31.38
2022-12-26T03:23:10.487Z,34.50
2022-12-26T03:25:57.705Z,29.40
2022-12-26T03:28:24.955Z,29.38
2022-12-26T03:30:52.656Z,26.83
2022-12-26T03:33:21.952Z,34.30
2022-12-26T03:35:48.367Z,29.52
2022-12-26T03:38:15.901Z,31.33
2022-12-26T03:40:55.276Z,31.70
2022-12-26T03:43:45.530Z,30.55
2022-12-26T03:46:46.574Z,28.95
2022-12-26T03:49:21.382Z,25.95
2022-12-26T03:51:54.260Z,26.13
2022-12-26T03:54:57.407Z,27.67
2022-12-26T03:57:33.012Z,25.52
2022-12-26T04:00:09.590Z,25.35
2022-12-26T04:05:07.192Z,26.65
2022-12-26T04:07:37.604Z,30.65
2022-12-26T04:10:35.500Z,26.52
2022-12-26T04:13:05.949Z,23.77
2022-12-26T04:15:44.390Z,27.17
2022-12-26T04:18:17.236Z,25.80
2022-12-26T04:21:14.475Z,25.85
2022-12-26T04:23:46.156Z,22.25
2022-12-26T04:26:19.786Z,23.83
2022-12-26T04:28:46.719Z,23.38
2022-12-26T04:31:42.525Z,26.90
2022-12-26T04:34:18.853Z,26.13
2022-12-26T04:37:01.211Z,22.42
2022-12-26T04:39:32.146Z,27.90
2022-12-26T04:42:00.416Z,28.38
2022-12-26T04:44:28.705Z,23.15
2022-12-26T04:46:56.478Z,27.48
2022-12-26T04:49:23.089Z,29.63
2022-12-26T04:51:49.899Z,34.67
2022-12-26T04:54:16.391Z,30.73
2022-12-26T04:56:42.925Z,35.40
2022-12-26T04:59:09.428Z,32.90
2022-12-26T05:01:36.100Z,33.20
2022-12-26T05:04:02.528Z,34.05
2022-12-26T05:06:29.308Z,35.15
2022-12-26T05:08:55.754Z,31.00
2022-12-26T05:11:23.127Z,36.97
2022-12-26T05:13:51.178Z,29.42
2022-12-26T05:16:17.619Z,31.25
2022-12-26T05:18:44.010Z,34.60
2022-12-26T05:21:17.811Z,32.63
2022-12-26T05:23:44.162Z,34.83
2022-12-26T05:26:23.356Z,31.20
2022-12-26T05:28:59.476Z,29.15
2022-12-26T05:31:31.162Z,26.70
2022-12-26T05:34:01.291Z,28.25
2022-12-26T05:36:31.870Z,28.48
2022-12-26T05:38:58.554Z,23.55
2022-12-26T05:41:25.258Z,23.05
2022-12-26T05:43:51.709Z,20.63
2022-12-26T05:46:18.133Z,20.15
2022-12-26T05:48:44.566Z,23.92
2022-12-26T05:51:11.369Z,22.00
2022-12-26T05:53:37.907Z,22.50
2022-12-26T05:56:11.795Z,20.40
2022-12-26T05:58:38.508Z,22.17
2022-12-26T06:01:14.123Z,21.30
2022-12-26T06:03:42.705Z,20.73
2022-12-26T06:06:10.325Z,15.70
2022-12-26T06:08:37.179Z,19.60
2022-12-26T06:11:08.673Z,15.30
2022-12-26T06:13:37.958Z,16.90
2022-12-26T06:16:10.402Z,15.23
2022-12-26T06:18:37.099Z,12.88
2022-12-26T06:21:05.971Z,16.17
2022-12-26T06:23:32.895Z,11.65
2022-12-26T06:25:59.313Z,14.93
2022-12-26T06:28:25.823Z,13.55
2022-12-26T06:30:52.852Z,12.25
2022-12-26T06:33:19.389Z,11.98
2022-12-26T06:35:45.865Z,11.10
2022-12-26T06:38:12.602Z,12.40
2022-12-26T06:40:42.535Z,10.23
2022-12-26T06:43:09.377Z,13.60
2022-12-26T06:45:35.898Z,16.45
2022-12-26T06:48:02.655Z,11.95
2022-12-26T06:50:29.172Z,13.63
2022-12-26T06:52:55.619Z,11.63
2022-12-26T06:55:22.064Z,13.70
2022-12-26T06:57:51.089Z,11.00
2022-12-26T07:00:17.538Z,10.15
2022-12-26T07:02:44.011Z,10.68
2022-12-26T07:05:10.547Z,10.13
2022-12-26T07:07:37.088Z,12.13
2022-12-26T07:10:03.759Z,12.45
2022-12-26T07:12:30.081Z,14.77
2022-12-26T07:15:01.353Z,12.18
2022-12-26T07:17:28.459Z,13.27
2022-12-26T07:19:54.891Z,12.55
2022-12-26T07:22:21.213Z,12.18
2022-12-26T07:24:47.563Z,9.60
2022-12-26T07:27:13.971Z,11.75
2022-12-26T07:29:40.333Z,12.82
2022-12-26T07:32:06.800Z,10.85
2022-12-26T07:34:33.183Z,10.23
2022-12-26T07:36:59.603Z,13.95
2022-12-26T07:39:25.984Z,9.85
2022-12-26T07:41:52.361Z,9.73
2022-12-26T07:44:18.694Z,10.10
2022-12-26T07:46:45.271Z,13.10
2022-12-26T07:49:12.287Z,10.75
2022-12-26T07:51:38.666Z,12.25
2022-12-26T07:54:11.087Z,12.90
2022-12-26T07:56:38.365Z,12.07
2022-12-26T07:59:04.808Z,7.10
2022-12-26T08:01:31.291Z,10.23
2022-12-26T08:03:57.886Z,8.85
2022-12-26T08:06:24.513Z,8.80
2022-12-26T08:08:51.703Z,12.15
2022-12-26T08:11:21.263Z,9.90
2022-12-26T08:13:47.727Z,10.00
2022-12-26T08:16:15.336Z,8.93
2022-12-26T08:18:42.087Z,7.40
2022-12-26T08:21:08.677Z,6.05
2022-12-26T08:23:35.053Z,6.45
2022-12-26T08:26:10.487Z,5.75
2022-12-26T08:28:37.098Z,9.38
2022-12-26T08:31:12.413Z,6.88
2022-12-26T08:33:38.787Z,7.35
2022-12-26T08:36:08.269Z,5.22
2022-12-26T08:38:35.759Z,5.72
2022-12-26T08:41:02.484Z,7.35
2022-12-26T08:43:45.374Z,6.35
2022-12-26T08:46:16.724Z,7.60
2022-12-26T08:48:43.907Z,9.57
2022-12-26T08:51:15.764Z,6.07
2022-12-26T08:53:43.008Z,6.43
2022-12-26T08:56:15.625Z,6.70
2022-12-26T08:58:42.444Z,7.63
2022-12-26T09:01:16.982Z,4.85
2022-12-26T09:03:44.421Z,4.05
2022-12-26T09:06:12.678Z,7.28
2022-12-26T09:08:40.244Z,6.03
2022-12-26T09:11:10.687Z,7.63
2022-12-26T09:13:38.603Z,4.00
2022-12-26T09:16:06.408Z,5.28
2022-12-26T09:18:32.761Z,6.85
2022-12-26T09:21:00.890Z,6.63
2022-12-26T09:23:28.332Z,5.53
2022-12-26T09:25:54.981Z,5.03
2022-12-26T09:28:22.234Z,6.10
2022-12-26T09:30:48.778Z,6.57
2022-12-26T09:33:15.146Z,6.25
2022-12-26T09:35:42.118Z,5.47
2022-12-26T09:38:08.450Z,6.13
2022-12-26T09:41:01.181Z,7.63
2022-12-26T09:43:50.054Z,5.57
2022-12-26T09:46:22.958Z,6.85
2022-12-26T09:48:59.155Z,6.18
2022-12-26T09:51:26.844Z,9.98
2022-12-26T09:53:54.955Z,5.97
2022-12-26T09:59:21.437Z,5.68
2022-12-26T10:01:47.844Z,7.90
2022-12-26T10:04:29.480Z,10.25
2022-12-26T10:06:59.099Z,9.98
2022-12-26T10:09:55.831Z,5.15
2022-12-26T10:12:37.381Z,7.22
2022-12-26T10:15:27.219Z,8.45
2022-12-26T10:18:05.831Z,7.70
2022-12-26T10:20:58.343Z,5.63
2022-12-26T10:23:31.752Z,6.63
2022-12-26T10:26:04.247Z,8.00
2022-12-26T10:28:39.031Z,9.38
2022-12-26T10:31:13.401Z,13.48
2022-12-26T10:34:04.437Z,5.82
2022-12-26T10:37:23.252Z,3.95
2022-12-26T10:40:08.445Z,8.80
2022-12-26T10:43:12.293Z,7.30
2022-12-26T10:46:02.975Z,7.28
2022-12-26T10:48:29.633Z,8.57
2022-12-26T10:50:56.269Z,7.90
2022-12-26T10:53:22.855Z,5.25
2022-12-26T10:55:49.199Z,7.20
2022-12-26T10:58:20.112Z,6.60
2022-12-26T11:00:46.484Z,6.03
2022-12-26T11:03:15.627Z,9.40
2022-12-26T11:06:07.110Z,6.47
2022-12-26T11:08:46.764Z,4.70
2022-12-26T11:11:22.326Z,4.10
2022-12-26T11:14:00.901Z,6.60
2022-12-26T11:16:38.418Z,5.68
2022-12-26T11:19:05.320Z,4.35
2022-12-26T11:21:33.150Z,3.53
2022-12-26T11:24:08.901Z,4.72
2022-12-26T11:26:35.810Z,2.95
2022-12-26T11:29:11.266Z,5.65
2022-12-26T11:31:40.590Z,5.68
2022-12-26T11:34:10.679Z,4.95
2022-12-26T11:36:38.952Z,5.18
2022-12-26T11:39:25.868Z,5.07
2022-12-26T11:41:54.127Z,4.45
2022-12-26T11:44:33.523Z,2.40
2022-12-26T11:47:08.939Z,5.05
2022-12-26T11:49:40.327Z,6.43
2022-12-26T11:52:49.032Z,11.95
2022-12-26T11:55:36.105Z,4.13
2022-12-26T11:58:18.668Z,4.43
2022-12-26T12:00:51.115Z,3.83
2022-12-26T12:03:22.697Z,5.32
2022-12-26T12:06:18.253Z,3.45
2022-12-26T12:08:53.717Z,3.67
2022-12-26T12:11:34.172Z,2.97
2022-12-26T12:14:12.697Z,3.00
2022-12-26T12:16:47.820Z,3.30
2022-12-26T12:19:27.587Z,2.38
2022-12-26T12:22:25.078Z,3.78
2022-12-26T12:25:03.695Z,1.65
2022-12-26T12:27:58.202Z,3.47
2022-12-26T12:30:34.526Z,3.53
2022-12-26T12:36:06.891Z,2.47
2022-12-26T12:39:00.201Z,2.55
2022-12-26T12:41:36.352Z,2.05
2022-12-26T12:44:05.108Z,2.03
2022-12-26T12:47:07.145Z,5.25
2022-12-26T12:49:55.218Z,2.63
2022-12-26T12:55:37.222Z,2.05
2022-12-26T12:58:17.821Z,1.92
2022-12-26T13:00:54.121Z,3.03
2022-12-26T13:03:24.477Z,3.20
2022-12-26T13:06:08.684Z,2.63
2022-12-26T13:08:51.741Z,3.00
2022-12-26T13:11:28.904Z,2.50
2022-12-26T13:14:03.405Z,1.70
2022-12-26T13:16:39.106Z,2.30
2022-12-26T13:19:10.330Z,4.15
2022-12-26T13:21:41.185Z,1.98
2022-12-26T13:24:17.836Z,2.63
2022-12-26T13:26:51.666Z,4.40
2022-12-26T13:29:33.944Z,4.22
2022-12-26T13:32:02.079Z,3.75
2022-12-26T13:34:28.788Z,2.83
2022-12-26T13:36:57.249Z,4.72
2022-12-26T13:39:23.647Z,4.13
2022-12-26T13:42:08.132Z,2.92
2022-12-26T13:44:34.654Z,3.47
2022-12-26T13:47:01.165Z,6.20
2022-12-26T13:49:39.154Z,2.47
2022-12-26T13:52:14.674Z,3.58
2022-12-26T13:54:47.122Z,2.45
2022-12-26T13:57:27.603Z,4.68
2022-12-26T14:00:18.853Z,3.22
2022-12-26T14:03:19.649Z,4.70
2022-12-26T14:05:58.901Z,4.00
2022-12-26T14:08:49.817Z,6.50
2022-12-26T14:11:37.507Z,5.55
2022-12-26T14:14:24.251Z,3.00
2022-12-26T14:17:08.996Z,7.63
2022-12-26T14:19:42.780Z,5.70
2022-12-26T14:22:26.382Z,3.30
2022-12-26T14:25:07.468Z,7.53
2022-12-26T14:27:45.156Z,4.43
2022-12-26T14:30:20.127Z,3.95
2022-12-26T14:33:01.630Z,4.78
2022-12-26T14:35:46.203Z,5.25
2022-12-26T14:38:30.764Z,4.82
2022-12-26T14:41:17.636Z,4.88
2022-12-26T14:43:44.256Z,3.83
2022-12-26T14:46:32.506Z,7.20
2022-12-26T14:49:17.154Z,5.95
2022-12-26T14:51:44.279Z,5.03
2022-12-26T14:54:16.834Z,7.32
2022-12-26T14:56:43.469Z,5.10
2022-12-26T14:59:32.671Z,2.88
2022-12-26T15:02:02.744Z,6.10
2022-12-26T15:04:52.665Z,5.55
2022-12-26T15:07:55.042Z,7.72
2022-12-26T15:10:42.453Z,12.95
2022-12-26T15:13:28.632Z,25.42
2022-12-26T15:16:02.832Z,12.07
2022-12-26T15:19:03.486Z,9.77
2022-12-26T15:22:00.270Z,16.58
2022-12-26T15:25:20.508Z,18.52
2022-12-26T15:28:09.363Z,9.52
2022-12-26T15:31:07.158Z,8.07
2022-12-26T15:33:59.018Z,25.27
2022-12-26T15:36:40.489Z,7.63
2022-12-26T15:39:27.254Z,10.70
2022-12-26T15:42:19.835Z,7.60
2022-12-26T15:45:28.441Z,8.90
2022-12-26T15:48:13.934Z,3.88
2022-12-26T15:50:56.721Z,5.35
2022-12-26T15:54:05.275Z,32.30
2022-12-26T15:56:34.471Z,59.03
2022-12-26T15:59:33.476Z,39.83
2022-12-26T16:02:00.303Z,16.30
2022-12-26T16:04:41.934Z,22.42
2022-12-26T16:07:31.503Z,8.52
2022-12-26T16:09:58.426Z,8.85
2022-12-26T16:12:33.654Z,8.88
2022-12-26T16:15:14.529Z,10.55
2022-12-26T16:17:41.838Z,9.60
2022-12-26T16:20:23.595Z,9.25
2022-12-26T16:22:50.164Z,4.20
2022-12-26T16:25:25.335Z,4.85
2022-12-26T16:27:55.779Z,9.70
2022-12-26T16:30:26.609Z,7.78
2022-12-26T16:32:53.961Z,4.68
2022-12-26T16:35:33.973Z,4.03
2022-12-26T16:38:02.657Z,5.25
2022-12-26T16:40:31.590Z,4.95
2022-12-26T16:43:02.730Z,5.18
2022-12-26T16:45:34.369Z,9.23
2022-12-26T16:48:01.436Z,6.22
2022-12-26T16:50:30.508Z,6.25
2022-12-26T16:53:18.111Z,6.75
2022-12-26T16:55:49.135Z,7.32
2022-12-26T16:58:36.841Z,4.32
2022-12-26T17:01:06.471Z,6.20
2022-12-26T17:03:47.813Z,9.02
2022-12-26T17:06:24.520Z,6.68
2022-12-26T17:08:52.052Z,7.72
2022-12-26T17:11:27.682Z,6.63
2022-12-26T17:13:55.153Z,9.65
2022-12-26T17:16:27.210Z,4.85
2022-12-26T17:18:55.849Z,7.63
2022-12-26T17:21:32.276Z,6.63
2022-12-26T17:24:04.964Z,8.23
2022-12-26T17:26:31.684Z,7.78
2022-12-26T17:28:59.719Z,10.15
2022-12-26T17:31:39.802Z,7.80
2022-12-26T17:34:26.496Z,5.60
2022-12-26T17:37:18.491Z,7.50
2022-12-26T17:39:39.986Z,8.63
2022-12-26T17:42:06.752Z,9.43
2022-12-26T17:44:41.422Z,7.68
2022-12-26T17:47:16.055Z,11.32
2022-12-26T17:49:43.174Z,12.57
2022-12-26T17:52:12.317Z,10.63
2022-12-26T17:54:38.971Z,10.25
2022-12-26T17:57:05.441Z,6.60
2022-12-26T17:59:31.844Z,17.83
2022-12-26T18:01:58.490Z,13.15
2022-12-26T18:04:24.913Z,8.52
2022-12-26T18:06:51.251Z,11.07
2022-12-26T18:09:25.720Z,16.85
2022-12-26T18:11:52.951Z,34.33
2022-12-26T18:14:20.279Z,39.03
2022-12-26T18:16:49.224Z,22.15
2022-12-26T18:19:17.641Z,14.38
2022-12-26T18:21:44.366Z,9.77
2022-12-26T18:24:10.872Z,20.55
2022-12-26T18:26:37.302Z,7.90
2022-12-26T18:29:03.808Z,12.85
2022-12-26T18:31:30.271Z,7.00
2022-12-26T18:33:56.770Z,4.60
2022-12-26T18:36:30.439Z,7.95
2022-12-26T18:38:57.161Z,10.18
2022-12-26T18:41:23.536Z,7.47
2022-12-26T18:43:49.969Z,7.32
2022-12-26T18:46:21.360Z,5.30
2022-12-26T18:48:48.400Z,10.43
2022-12-26T18:51:15.065Z,6.60
2022-12-26T18:53:41.436Z,6.07
2022-12-26T18:56:14.340Z,8.85
2022-12-26T18:58:40.972Z,16.05
2022-12-26T19:01:07.583Z,9.90
2022-12-26T19:03:34.066Z,4.97
2022-12-26T19:06:00.759Z,6.88
2022-12-26T19:08:27.165Z,9.70
2022-12-26T19:10:53.514Z,3.90
2022-12-26T19:13:19.877Z,5.72
2022-12-26T19:15:47.055Z,8.93
2022-12-26T19:18:13.757Z,7.50
2022-12-26T19:20:44.114Z,7.60
2022-12-26T19:23:10.776Z,7.43
2022-12-26T19:25:37.160Z,6.10
2022-12-26T19:28:03.802Z,7.32
2022-12-26T19:30:35.103Z,7.15
2022-12-26T19:33:04.730Z,9.60
2022-12-26T19:35:31.127Z,9.30
2022-12-26T19:37:58.488Z,7.45
2022-12-26T19:40:25.451Z,8.57
2022-12-26T19:42:52.222Z,5.35
2022-12-26T19:45:18.825Z,7.28
2022-12-26T19:47:45.368Z,9.05
2022-12-26T19:50:12.540Z,5.97
2022-12-26T19:52:38.928Z,6.18
2022-12-26T19:55:07.616Z,4.57
2022-12-26T19:57:34.537Z,6.45
2022-12-26T20:00:00.897Z,5.47
2022-12-26T20:02:27.369Z,7.80
2022-12-26T20:04:53.856Z,9.48
2022-12-26T20:07:20.291Z,5.80
2022-12-26T20:09:46.816Z,5.60
2022-12-26T20:12:13.169Z,4.45
2022-12-26T20:14:39.513Z,5.78
2022-12-26T20:17:07.574Z,9.85
2022-12-26T20:19:35.502Z,8.00
2022-12-26T20:22:01.955Z,10.18
2022-12-26T20:24:28.400Z,4.35
2022-12-26T20:26:54.817Z,8.80
2022-12-26T20:29:21.445Z,6.50
2022-12-26T20:31:48.501Z,4.95
2022-12-26T20:34:14.899Z,8.73
2022-12-26T20:36:41.730Z,6.88
2022-12-26T20:39:13.657Z,4.35
2022-12-26T20:41:39.979Z,5.78
2022-12-26T20:44:06.622Z,4.43
2022-12-26T20:46:35.456Z,5.70
2022-12-26T20:49:03.128Z,4.75
2022-12-26T20:51:36.498Z,4.03
2022-12-26T20:54:05.176Z,8.32
2022-12-26T20:56:31.905Z,6.15
2022-12-26T20:58:58.426Z,8.77
2022-12-26T21:01:25.304Z,7.28
2022-12-26T21:03:53.506Z,6.32
2022-12-26T21:06:27.389Z,3.90
2022-12-26T21:08:54.123Z,3.88
2022-12-26T21:11:26.659Z,7.28
2022-12-26T21:13:59.352Z,5.47
2022-12-26T21:16:41.796Z,3.83
2022-12-26T21:19:14.624Z,6.90
2022-12-26T21:21:42.668Z,6.93
2022-12-26T21:24:15.233Z,6.75
2022-12-26T21:26:42.311Z,6.32
2022-12-26T21:29:16.583Z,5.32
2022-12-26T21:31:43.423Z,3.97
2022-12-26T21:34:12.381Z,3.88
2022-12-26T21:36:39.415Z,6.97
2022-12-26T21:39:10.120Z,4.18
2022-12-26T21:41:37.576Z,5.78
2022-12-26T21:44:04.449Z,4.43
2022-12-26T21:46:30.978Z,6.38
2022-12-26T21:48:57.372Z,9.25
2022-12-26T21:51:24.439Z,9.00
2022-12-26T21:53:50.774Z,7.13
2022-12-26T21:56:17.981Z,10.48
2022-12-26T21:58:44.875Z,11.38
2022-12-26T22:01:17.973Z,7.43
2022-12-26T22:03:44.449Z,6.10
2022-12-26T22:06:16.953Z,5.70
2022-12-26T22:08:44.315Z,8.73
2022-12-26T22:11:17.051Z,3.75
2022-12-26T22:13:43.406Z,4.45
2022-12-26T22:16:11.781Z,8.52
2022-12-26T22:18:44.479Z,6.43
2022-12-26T22:21:17.627Z,5.22
2022-12-26T22:23:45.511Z,5.32
2022-12-26T22:26:15.056Z,6.70
2022-12-26T22:28:41.909Z,7.65
2022-12-26T22:31:17.301Z,3.72
2022-12-26T22:33:43.645Z,6.03
2022-12-26T22:36:10.257Z,4.53
2022-12-26T22:38:37.512Z,6.25
2022-12-26T22:41:04.770Z,14.68
2022-12-26T22:43:32.171Z,9.02
2022-12-26T22:45:58.835Z,9.35
2022-12-26T22:48:25.314Z,9.13
2022-12-26T22:50:54.517Z,8.82
2022-12-26T22:53:25.745Z,7.32
2022-12-26T22:55:58.016Z,8.85
2022-12-26T22:58:24.431Z,5.70
2022-12-26T23:00:51.112Z,8.05
2022-12-26T23:03:18.491Z,7.78
2022-12-26T23:05:46.303Z,10.02
2022-12-26T23:08:39.279Z,8.27
2022-12-26T23:11:05.889Z,6.90
2022-12-26T23:13:32.434Z,7.90
2022-12-26T23:16:09.198Z,8.57
2022-12-26T23:18:45.420Z,8.38
2022-12-26T23:21:32.473Z,7.20
2022-12-26T23:23:58.789Z,10.07
2022-12-26T23:26:25.271Z,15.63
2022-12-26T23:28:51.622Z,6.88
2022-12-26T23:31:18.028Z,7.00
2022-12-26T23:33:44.366Z,12.18
2022-12-26T23:36:10.682Z,7.30
2022-12-26T23:38:37.258Z,10.95
2022-12-26T23:41:03.670Z,7.35
2022-12-26T23:43:30.185Z,5.28
2022-12-26T23:45:56.582Z,9.73
2022-12-26T23:48:22.896Z,5.93
2022-12-26T23:50:49.247Z,10.15
2022-12-26T23:53:15.644Z,10.38
2022-12-26T23:55:42.045Z,7.40
2022-12-26T23:58:08.536Z,8.95
